Time;durP1;ratioP1;P1;durP2;ratioP2;P2;SDS_P1;SDS_P2;PMS_P1;PMS_P2;Temp;Humidity;BMP_temperature;BMP_pressure;BME280_temperature;BME280_humidity;BME280_pressure;Samples;Min_cycle;Max_cycle;Signal;HPM_P1;HPM_P2
2022/01/26 00:00:07;;;;;;;;;;;;;;;14.76;54.83;103036.56;1045762;28;842;-62
2022/01/26 00:05:44;;;;;;;;;;;;;;;14.77;54.63;103035.63;1045805;28;751;-62
2022/01/26 00:05:51;;;;;;;;;;;;;;;14.74;54.96;103024.16;1038116;28;642;-60
2022/01/26 00:06:42;;;;;;;;;;;;;;;14.73;54.93;103014.38;1044509;28;1736;-60
2022/01/26 00:07:32;;;;;;;;;;;;;;;14.75;54.98;103020.53;1045638;28;671;-60
2022/01/26 00:08:25;;;;;;;;;;;;;;;14.73;55.38;103017.03;1045697;28;740;-59
2022/01/26 00:09:16;;;;;;;;;;;;;;;14.72;55.48;103020.66;1039646;28;1709;-59
2022/01/26 00:10:06;;;;;;;;;;;;;;;14.71;55.47;103017.13;1041874;28;1888;-58
2022/01/26 00:10:56;;;;;;;;;;;;;;;14.71;54.94;103014.44;1042147;28;709;-59
2022/01/26 00:11:47;;;;;;;;;;;;;;;14.69;55.56;103020.84;1042043;28;700;-59
2022/01/26 00:12:37;;;;;;;;;;;;;;;14.71;54.96;103014.44;1042074;28;1840;-59
2022/01/26 00:13:28;;;;;;;;;;;;;;;14.70;55.18;103012.69;1042144;28;645;-59
2022/01/26 00:14:18;;;;;;;;;;;;;;;14.70;55.47;103018.06;1042309;28;742;-58
2022/01/26 00:15:09;;;;;;;;;;;;;;;14.71;55.29;103009.06;1042176;28;690;-60
2022/01/26 00:16:03;;;;;;;;;;;;;;;14.70;55.66;103009.13;1042101;28;1956;-58
2022/01/26 00:16:53;;;;;;;;;;;;;;;14.69;55.53;103005.56;1038470;28;855;-58
2022/01/26 00:17:44;;;;;;;;;;;;;;;14.70;54.95;103012.69;1040846;28;1588;-58
2022/01/26 00:18:37;;;;;;;;;;;;;;;14.70;55.33;103018.06;1040889;28;962;-59
2022/01/26 00:19:43;;;;;;;;;;;;;;;14.72;55.30;103007.25;1041312;28;1661;-60
2022/01/26 00:20:41;;;;;;;;;;;;;;;14.70;54.89;103007.31;1042839;28;629;-61
2022/01/26 00:21:39;;;;;;;;;;;;;;;14.71;55.17;103002.81;1041992;28;1722;-60
2022/01/26 00:23:50;;;;;;;;;;;;;;;14.70;55.51;102996.59;1038179;28;780;-61
2022/01/26 00:26:08;;;;;;;;;;;;;;;14.66;55.27;102997.69;1039891;28;1003;-60
2022/01/26 00:27:07;;;;;;;;;;;;;;;14.68;55.22;102987.78;1042916;28;937;-61
2022/01/26 00:29:59;;;;;;;;;;;;;;;14.66;55.35;102986.97;1038825;28;1061;-60
2022/01/26 00:38:43;;;;;;;;;;;;;;;14.61;56.05;102986.31;1043440;28;637;-60
2022/01/26 00:39:33;;;;;;;;;;;;;;;14.61;55.59;102986.31;1044746;28;1570;-60
2022/01/26 00:41:16;;;;;;;;;;;;;;;14.62;55.53;102984.50;1045731;28;831;-60
2022/01/26 00:42:07;;;;;;;;;;;;;;;14.62;55.34;102982.69;1046452;28;811;-60
2022/01/26 00:43:02;;;;;;;;;;;;;;;14.62;55.42;102985.38;1046527;28;819;-60
2022/01/26 00:43:56;;;;;;;;;;;;;;;14.63;55.68;102978.19;1043979;28;1974;-60
2022/01/26 00:44:49;;;;;;;;;;;;;;;14.61;55.62;102970.22;1042992;28;617;-61
2022/01/26 00:45:39;;;;;;;;;;;;;;;14.60;55.56;102971.16;1043001;28;697;-60
2022/01/26 00:46:31;;;;;;;;;;;;;;;14.59;55.10;102966.72;1042965;28;657;-59
2022/01/26 00:47:21;;;;;;;;;;;;;;;14.59;54.97;102967.59;1042871;28;902;-60
2022/01/26 00:48:18;;;;;;;;;;;;;;;14.60;55.68;102968.47;1042866;28;873;-60
2022/01/26 00:49:09;;;;;;;;;;;;;;;14.59;54.84;102972.09;1042636;28;1775;-58
2022/01/26 00:50:04;;;;;;;;;;;;;;;14.60;54.87;102968.47;1042906;28;930;-60
2022/01/26 00:50:55;;;;;;;;;;;;;;;14.60;55.05;102976.50;1042867;28;764;-56
2022/01/26 00:51:45;;;;;;;;;;;;;;;14.59;55.10;102967.59;1043610;28;644;-59
2022/01/26 00:52:41;;;;;;;;;;;;;;;14.60;54.98;102973.84;1042824;28;753;-60
2022/01/26 00:53:45;;;;;;;;;;;;;;;14.57;55.57;102973.97;1047098;28;2021;-59
2022/01/26 00:54:35;;;;;;;;;;;;;;;14.57;55.15;102968.59;1038865;28;716;-59
2022/01/26 00:55:26;;;;;;;;;;;;;;;14.56;55.17;102972.22;1038149;28;701;-60
2022/01/26 00:56:16;;;;;;;;;;;;;;;14.56;54.99;102978.47;1041109;28;1809;-60
2022/01/26 00:57:07;;;;;;;;;;;;;;;14.57;55.40;102974.84;1042350;28;709;-59
2022/01/26 00:57:57;;;;;;;;;;;;;;;14.60;54.55;102979.19;1042361;28;760;-59
2022/01/26 00:58:48;;;;;;;;;;;;;;;14.62;55.42;102977.31;1042911;28;1791;-60
2022/01/26 00:59:38;;;;;;;;;;;;;;;14.63;54.68;102983.56;1046430;28;653;-61
2022/01/26 01:00:28;;;;;;;;;;;;;;;14.65;55.04;102979.00;1046340;28;764;-61
2022/01/26 01:01:19;;;;;;;;;;;;;;;14.66;54.62;102972.69;1046489;28;732;-61
2022/01/26 01:02:09;;;;;;;;;;;;;;;14.66;55.11;102973.56;1046348;28;1021;-61
2022/01/26 01:03:01;;;;;;;;;;;;;;;14.67;54.78;102977.09;1046523;28;756;-61
2022/01/26 01:03:52;;;;;;;;;;;;;;;14.68;55.13;102974.34;1044687;28;1758;-61
2022/01/26 01:04:42;;;;;;;;;;;;;;;14.68;55.28;102968.97;1042819;28;915;-61
2022/01/26 01:05:38;;;;;;;;;;;;;;;14.67;55.01;102967.25;1042907;28;605;-60
2022/01/26 01:06:34;;;;;;;;;;;;;;;14.66;54.62;102970.88;1042888;28;807;-61
2022/01/26 01:07:25;;;;;;;;;;;;;;;14.65;54.52;102971.81;1042788;28;656;-59
2022/01/26 01:08:18;;;;;;;;;;;;;;;14.65;55.42;102966.44;1043003;28;687;-59
2022/01/26 01:09:09;;;;;;;;;;;;;;;14.65;55.09;102971.81;1042657;28;1805;-60
2022/01/26 01:10:00;;;;;;;;;;;;;;;14.66;55.04;102968.19;1042898;28;1864;-60
2022/01/26 01:10:51;;;;;;;;;;;;;;;14.66;55.09;102968.19;1042872;28;905;-60
2022/01/26 01:11:41;;;;;;;;;;;;;;;14.66;54.93;102967.31;1042857;28;644;-60
2022/01/26 01:12:38;;;;;;;;;;;;;;;14.65;54.67;102970.94;1042863;28;755;-61
2022/01/26 01:13:34;;;;;;;;;;;;;;;14.64;54.58;102964.69;1039087;28;671;-60
2022/01/26 01:14:25;;;;;;;;;;;;;;;14.65;54.52;102962.88;1038347;28;681;-61
2022/01/26 01:15:15;;;;;;;;;;;;;;;14.64;54.59;102958.47;1042782;28;944;-61
2022/01/26 01:16:06;;;;;;;;;;;;;;;14.63;54.59;102954.03;1040983;28;1981;-61
2022/01/26 01:17:00;;;;;;;;;;;;;;;14.62;54.46;102955.84;1042397;28;1617;-61
2022/01/26 01:17:54;;;;;;;;;;;;;;;14.62;55.08;102954.97;1041453;28;1563;-61
2022/01/26 01:18:52;;;;;;;;;;;;;;;14.62;55.09;102949.63;1041156;28;1565;-60
2022/01/26 01:20:00;;;;;;;;;;;;;;;14.61;54.84;102945.19;1043292;28;1647;-61
2022/01/26 01:22:17;;;;;;;;;;;;;;;14.59;54.60;102939.91;1039268;28;1580;-59
2022/01/26 01:24:38;;;;;;;;;;;;;;;14.58;54.51;102935.47;1029812;28;1597;-60
2022/01/26 01:26:03;;;;;;;;;;;;;;;14.57;54.59;102931.03;1041533;28;1532;-60
2022/01/26 01:29:10;;;;;;;;;;;;;;;14.56;54.66;102929.31;1041838;28;1560;-60
2022/01/26 01:30:42;;;;;;;;;;;;;;;14.56;54.65;102929.31;1042593;28;1472;-60
2022/01/26 01:32:12;;;;;;;;;;;;;;;14.56;54.08;102932.84;1043085;28;1630;-60
2022/01/26 01:33:06;;;;;;;;;;;;;;;14.54;53.29;102941.91;1041942;28;1701;-60
2022/01/26 01:33:56;;;;;;;;;;;;;;;14.54;53.94;102940.09;1043096;28;1541;-60
2022/01/26 01:34:46;;;;;;;;;;;;;;;14.54;54.41;102936.56;1039802;28;1591;-60
2022/01/26 01:35:38;;;;;;;;;;;;;;;14.53;53.50;102934.81;1039592;28;1587;-60
2022/01/26 01:36:28;;;;;;;;;;;;;;;14.52;54.68;102933.06;1041379;28;1584;-59
2022/01/26 01:37:19;;;;;;;;;;;;;;;14.52;53.73;102936.63;1042617;28;1552;-60
2022/01/26 01:38:12;;;;;;;;;;;;;;;14.52;53.87;102930.38;1040690;28;1451;-60
2022/01/26 01:39:02;;;;;;;;;;;;;;;14.52;54.25;102935.75;1039220;28;704;-60
2022/01/26 01:39:53;;;;;;;;;;;;;;;14.50;54.35;102935.00;1040709;28;1476;-60
2022/01/26 01:40:43;;;;;;;;;;;;;;;14.49;53.81;102936.78;1042737;28;1479;-60
2022/01/26 01:41:34;;;;;;;;;;;;;;;14.49;53.92;102934.13;1038725;28;1478;-58
2022/01/26 01:42:24;;;;;;;;;;;;;;;14.48;53.64;102926.13;1037938;28;1849;-60
2022/01/26 01:43:14;;;;;;;;;;;;;;;14.46;53.94;102926.22;1037611;28;1560;-60
2022/01/26 01:44:05;;;;;;;;;;;;;;;14.48;53.55;102923.44;1043687;28;1653;-60
2022/01/26 01:44:55;;;;;;;;;;;;;;;14.46;53.35;102931.56;1041676;28;1547;-60
2022/01/26 01:45:48;;;;;;;;;;;;;;;14.46;53.66;102930.69;1040961;28;1595;-60
2022/01/26 01:46:40;;;;;;;;;;;;;;;14.47;53.41;102921.72;1042598;28;1507;-60
2022/01/26 01:47:30;;;;;;;;;;;;;;;14.45;53.92;102920.91;1041468;28;1211;-60
2022/01/26 01:48:32;;;;;;;;;;;;;;;14.44;53.88;102928.09;1042712;28;1664;-65
2022/01/26 01:49:22;;;;;;;;;;;;;;;14.44;53.24;102930.78;1038218;28;724;-66
2022/01/26 01:50:12;;;;;;;;;;;;;;;14.45;53.55;102937.00;1038378;28;606;-66
2022/01/26 01:51:06;;;;;;;;;;;;;;;14.45;53.46;102937.00;1038217;28;685;-67
2022/01/26 01:52:03;;;;;;;;;;;;;;;14.44;53.49;102929.91;1034869;28;633;-67
2022/01/26 19:13:19;;;;;;;;;;;;;;;15.47;60.47;102551.19;875979;23;3273;-61
2022/01/26 19:14:10;;;;;;;;;;;;;;;15.49;60.53;102551.09;1020379;29;1535;-60
2022/01/26 19:15:04;;;;;;;;;;;;;;;15.47;60.43;102553.00;1020262;29;1653;-61
2022/01/26 19:16:00;;;;;;;;;;;;;;;15.45;59.91;102545.03;1020410;29;1025;-61
2022/01/26 19:17:06;;;;;;;;;;;;;;;15.46;59.82;102549.44;1020325;29;1903;-59
2022/01/26 19:18:03;;;;;;;;;;;;;;;15.47;59.40;102543.13;1018184;29;705;-59
2022/01/26 19:20:05;;;;;;;;;;;;;;;15.45;58.81;102541.47;1019612;29;1402;-59
2022/01/26 19:21:11;;;;;;;;;;;;;;;15.48;59.05;102544.00;1020307;29;1347;-59
2022/01/26 19:22:15;;;;;;;;;;;;;;;15.47;58.74;102542.25;1020785;29;1231;-58
2022/01/26 19:26:07;;;;;;;;;;;;;;;15.52;58.07;102526.75;1018238;29;758;-58
2022/01/26 19:27:02;;;;;;;;;;;;;;;15.50;58.26;102521.47;1018681;29;748;-59
2022/01/26 19:28:11;;;;;;;;;;;;;;;15.51;57.81;102533.06;1018289;29;779;-59
2022/01/26 19:29:21;;;;;;;;;;;;;;;15.53;57.74;102536.53;1018069;29;817;-60
2022/01/26 19:43:37;;;;;;;;;;;;;;;15.48;57.74;102499.19;1019478;29;1452;-60
2022/01/26 19:44:01;;;;;;;;;;;;;;;15.47;57.50;102500.13;1019429;29;1763;-60
2022/01/26 19:45:56;;;;;;;;;;;;;;;15.48;57.17;102499.19;1019107;29;1704;-61
2022/01/26 19:50:53;;;;;;;;;;;;;;;15.35;57.18;102474.00;1020995;29;1428;-59
2022/01/26 19:52:29;;;;;;;;;;;;;;;15.37;57.08;102472.09;1021767;29;1416;-58
2022/01/26 19:52:53;;;;;;;;;;;;;;;15.35;56.99;102474.00;1017213;29;1570;-59
2022/01/26 19:53:42;;;;;;;;;;;;;;;15.34;56.89;102480.34;1020005;29;1476;-59
2022/01/26 19:54:31;;;;;;;;;;;;;;;15.33;56.51;102481.28;1019065;29;1313;-59
2022/01/26 19:55:20;;;;;;;;;;;;;;;15.32;57.12;102474.19;1019596;29;1315;-60
2022/01/26 19:56:09;;;;;;;;;;;;;;;15.32;57.10;102476.00;1021545;29;1485;-59
2022/01/26 19:56:58;;;;;;;;;;;;;;;15.29;57.21;102479.72;1019860;29;1895;-59
2022/01/26 19:57:47;;;;;;;;;;;;;;;15.27;56.74;102473.56;1020316;29;1390;-60
2022/01/26 19:58:35;;;;;;;;;;;;;;;15.25;57.23;102483.53;1019119;29;1328;-58
2022/01/26 19:59:24;;;;;;;;;;;;;;;15.26;56.92;102490.66;1021505;29;1354;-59
2022/01/26 20:00:13;;;;;;;;;;;;;;;15.27;57.04;102481.63;1021654;29;1480;-59
2022/01/26 20:01:02;;;;;;;;;;;;;;;15.25;57.03;102483.53;1019950;29;1415;-59
2022/01/26 20:01:51;;;;;;;;;;;;;;;15.24;57.10;102477.31;1020696;29;1669;-59
2022/01/26 20:02:40;;;;;;;;;;;;;;;15.23;56.97;102474.72;1019659;29;1409;-59
2022/01/26 20:03:31;;;;;;;;;;;;;;;15.22;57.14;102467.63;1020961;29;2411;-59
2022/01/26 20:04:20;;;;;;;;;;;;;;;15.20;56.74;102475.78;1019537;29;1424;-59
2022/01/26 20:05:14;;;;;;;;;;;;;;;15.20;56.96;102477.59;1021442;29;1403;-59
2022/01/26 20:06:05;;;;;;;;;;;;;;;15.18;57.00;102476.81;1021427;29;1311;-61
2022/01/26 20:06:54;;;;;;;;;;;;;;;15.16;57.09;102474.22;1020255;29;1593;-59
2022/01/26 20:07:44;;;;;;;;;;;;;;;15.14;56.51;102475.25;1017730;29;1382;-60
2022/01/26 20:08:41;;;;;;;;;;;;;;;15.15;56.85;102471.63;1021141;29;1481;-60
2022/01/26 20:09:39;;;;;;;;;;;;;;;15.14;56.79;102467.19;1019027;29;1320;-60
2022/01/26 20:10:31;;;;;;;;;;;;;;;15.12;56.44;102467.28;1020477;29;1586;-60
2022/01/26 20:12:38;;;;;;;;;;;;;;;15.11;56.61;102467.38;1018869;29;1272;-59
2022/01/26 20:13:30;;;;;;;;;;;;;;;15.11;56.36;102462.00;1019789;29;1560;-60
2022/01/26 20:14:23;;;;;;;;;;;;;;;15.10;56.88;102462.97;1021358;29;1362;-57
2022/01/26 20:15:12;;;;;;;;;;;;;;;15.08;56.79;102465.72;1020948;29;1531;-60
2022/01/26 20:16:01;;;;;;;;;;;;;;;15.09;56.54;102463.91;1021598;29;1368;-60
2022/01/26 20:16:50;;;;;;;;;;;;;;;15.10;56.56;102465.63;1021434;29;1907;-60
2022/01/26 20:17:42;;;;;;;;;;;;;;;15.08;56.52;102465.72;1021113;29;1358;-60
2022/01/26 20:18:31;;;;;;;;;;;;;;;15.08;55.99;102464.88;1021397;29;1549;-59
2022/01/26 20:19:19;;;;;;;;;;;;;;;15.07;56.45;102474.72;1019591;29;1470;-60
2022/01/26 20:20:12;;;;;;;;;;;;;;;15.07;55.97;102465.81;1021351;29;1464;-60
2022/01/26 20:21:02;;;;;;;;;;;;;;;15.05;56.40;102479.31;1020658;29;1454;-59
2022/01/26 20:21:51;;;;;;;;;;;;;;;15.06;56.02;102472.13;1020190;29;1489;-60
2022/01/26 20:22:40;;;;;;;;;;;;;;;15.04;56.56;102466.88;1019055;29;1413;-59
2022/01/26 20:23:32;;;;;;;;;;;;;;;15.02;56.64;102468.78;1019560;29;1580;-61
2022/01/26 20:24:21;;;;;;;;;;;;;;;15.02;56.50;102462.56;1017620;29;1416;-60
2022/01/26 20:25:12;;;;;;;;;;;;;;;15.00;56.24;102468.00;1018954;29;1362;-60
2022/01/26 20:26:02;;;;;;;;;;;;;;;14.99;56.49;102460.03;1019125;29;1398;-60
2022/01/26 20:26:52;;;;;;;;;;;;;;;14.99;56.31;102454.66;1018616;29;1549;-61
2022/01/26 20:27:41;;;;;;;;;;;;;;;14.98;55.81;102463.69;1019489;29;978;-60
2022/01/26 20:28:31;;;;;;;;;;;;;;;14.97;56.08;102461.94;1018737;29;1251;-60
2022/01/26 20:29:22;;;;;;;;;;;;;;;14.97;56.43;102456.56;1021692;29;1073;-60
2022/01/26 20:30:14;;;;;;;;;;;;;;;14.95;55.91;102456.66;1018438;29;1297;-59
2022/01/26 20:31:05;;;;;;;;;;;;;;;14.96;55.70;102460.22;1021437;29;1475;-59
2022/01/26 20:31:54;;;;;;;;;;;;;;;14.96;56.33;102454.84;1017784;29;772;-60
2022/01/26 20:32:44;;;;;;;;;;;;;;;14.96;56.15;102454.84;1017480;29;825;-60
2022/01/26 20:33:33;;;;;;;;;;;;;;;14.94;55.91;102458.47;1017661;29;1543;-60
2022/01/26 20:34:21;;;;;;;;;;;;;;;14.95;56.00;102462.03;1018232;29;1543;-60
2022/01/26 20:35:10;;;;;;;;;;;;;;;14.94;56.38;102453.09;1017424;29;1477;-60
2022/01/26 20:35:59;;;;;;;;;;;;;;;14.94;56.06;102461.16;1017529;29;1668;-60
2022/01/26 20:36:48;;;;;;;;;;;;;;;14.93;56.08;102455.88;1020759;29;1902;-60
2022/01/26 20:37:37;;;;;;;;;;;;;;;14.94;55.91;102446.88;1017661;29;1473;-60
2022/01/26 20:38:26;;;;;;;;;;;;;;;14.93;55.83;102451.38;1018676;29;1558;-60
2022/01/26 20:39:15;;;;;;;;;;;;;;;14.91;56.26;102447.91;1021261;29;1350;-61
2022/01/26 20:40:04;;;;;;;;;;;;;;;14.90;56.00;102451.56;1019122;29;2147;-61
2022/01/26 20:40:53;;;;;;;;;;;;;;;14.90;55.80;102440.81;1018294;29;788;-61
2022/01/26 20:41:44;;;;;;;;;;;;;;;14.90;55.82;102446.19;1018340;29;865;-60
2022/01/26 20:42:34;;;;;;;;;;;;;;;14.90;55.93;102446.19;1018063;29;774;-60
2022/01/26 20:43:25;;;;;;;;;;;;;;;14.89;55.50;102444.44;1019677;29;1692;-59
2022/01/26 20:44:18;;;;;;;;;;;;;;;14.90;56.17;102448.88;1017606;29;1364;-60
2022/01/26 20:45:08;;;;;;;;;;;;;;;14.88;55.61;102431.97;1019034;29;1338;-59
2022/01/26 20:46:02;;;;;;;;;;;;;;;14.88;55.78;102440.03;1018991;29;1408;-59
2022/01/26 20:46:52;;;;;;;;;;;;;;;14.88;55.95;102436.47;1018852;29;1552;-60
2022/01/26 20:47:43;;;;;;;;;;;;;;;14.87;56.33;102434.75;1019558;29;1645;-60
2022/01/26 20:48:33;;;;;;;;;;;;;;;14.87;56.15;102440.13;1018336;29;1533;-60
2022/01/26 20:49:23;;;;;;;;;;;;;;;14.87;55.55;102440.97;1019220;29;1623;-59
2022/01/26 20:50:14;;;;;;;;;;;;;;;14.86;56.06;102441.97;1021296;29;1512;-60
2022/01/26 20:51:04;;;;;;;;;;;;;;;14.83;56.02;102444.81;1020144;29;1492;-60
2022/01/26 20:51:56;;;;;;;;;;;;;;;14.84;55.93;102443.00;1018159;29;1524;-60
2022/01/26 20:52:46;;;;;;;;;;;;;;;14.83;55.78;102433.22;1020053;29;1780;-60
2022/01/26 20:53:37;;;;;;;;;;;;;;;14.84;55.60;102441.19;1018894;29;654;-59
2022/01/26 20:54:28;;;;;;;;;;;;;;;14.85;55.55;102442.91;1017628;29;1806;-59
2022/01/26 20:55:18;;;;;;;;;;;;;;;14.85;56.16;102444.75;1021182;29;1495;-60
2022/01/26 20:56:09;;;;;;;;;;;;;;;14.86;55.69;102438.41;1018087;29;1610;-60
2022/01/26 20:56:59;;;;;;;;;;;;;;;14.86;55.96;102447.34;1018917;29;1968;-60
2022/01/26 20:57:49;;;;;;;;;;;;;;;14.86;56.17;102441.97;1018861;29;1921;-60
2022/01/26 20:58:40;;;;;;;;;;;;;;;14.85;56.05;102440.22;1016794;29;1473;-59
2022/01/26 20:59:30;;;;;;;;;;;;;;;14.85;56.04;102448.28;1016059;29;1634;-59
2022/01/26 21:00:21;;;;;;;;;;;;;;;14.85;56.13;102447.41;1019662;29;1630;-60
2022/01/26 21:01:11;;;;;;;;;;;;;;;14.84;55.70;102440.31;1020774;29;1503;-59
2022/01/26 21:02:02;;;;;;;;;;;;;;;14.80;56.18;102434.25;1021213;29;1263;-60
2022/01/26 21:02:53;;;;;;;;;;;;;;;14.81;55.51;102437.81;1020441;29;1471;-59
2022/01/26 21:03:44;;;;;;;;;;;;;;;14.82;56.19;102442.22;1019965;29;1631;-60
2022/01/26 21:04:34;;;;;;;;;;;;;;;14.81;55.31;102432.44;1020704;29;1486;-59
2022/01/26 21:05:25;;;;;;;;;;;;;;;14.80;55.56;102433.38;1018703;29;1478;-60
2022/01/26 21:06:17;;;;;;;;;;;;;;;14.79;56.33;102431.66;1020279;29;1303;-60
2022/01/26 21:07:08;;;;;;;;;;;;;;;14.81;55.50;102429.75;1021826;29;1507;-60
2022/01/26 21:07:59;;;;;;;;;;;;;;;14.80;55.66;102430.72;1020117;29;1386;-59
2022/01/26 21:08:50;;;;;;;;;;;;;;;14.80;55.98;102436.06;1020557;29;1478;-59
2022/01/26 21:09:40;;;;;;;;;;;;;;;14.80;56.23;102434.25;1020831;29;1568;-60
2022/01/26 21:10:30;;;;;;;;;;;;;;;14.80;55.75;102436.94;1021255;29;1408;-60
2022/01/26 21:11:21;;;;;;;;;;;;;;;14.79;56.28;102437.88;1020292;29;1554;-60
2022/01/26 21:12:11;;;;;;;;;;;;;;;14.80;55.83;102433.38;1020501;29;1537;-58
2022/01/26 21:13:02;;;;;;;;;;;;;;;14.81;55.37;102438.69;1021743;29;1559;-58
2022/01/26 21:13:54;;;;;;;;;;;;;;;14.79;55.80;102437.03;1018607;29;1589;-60
2022/01/26 21:14:44;;;;;;;;;;;;;;;14.79;55.40;102427.16;1017547;29;1673;-57
2022/01/26 21:15:35;;;;;;;;;;;;;;;14.79;55.78;102431.66;1016248;29;1541;-60
2022/01/26 21:16:26;;;;;;;;;;;;;;;14.78;55.92;102425.41;1020081;29;1637;-59
2022/01/26 21:17:17;;;;;;;;;;;;;;;14.78;55.92;102438.84;1021221;29;1403;-59
2022/01/26 21:18:07;;;;;;;;;;;;;;;14.77;56.08;102439.78;1021066;29;1329;-59
2022/01/26 21:18:58;;;;;;;;;;;;;;;14.76;55.53;102435.38;1020824;29;1552;-59
2022/01/26 21:19:49;;;;;;;;;;;;;;;14.76;55.64;102437.19;1022091;29;1417;-58
2022/01/26 21:20:39;;;;;;;;;;;;;;;14.75;55.69;102433.66;1021055;29;1398;-59
2022/01/26 21:21:30;;;;;;;;;;;;;;;14.74;55.84;102437.28;1018288;29;1425;-59
2022/01/26 21:22:20;;;;;;;;;;;;;;;14.73;55.44;102427.50;1021797;29;1557;-59
2022/01/26 21:23:10;;;;;;;;;;;;;;;14.72;55.37;102436.50;1021338;29;1463;-59
2022/01/26 21:24:01;;;;;;;;;;;;;;;14.71;55.69;102424.03;1021945;29;1503;-59
2022/01/26 21:24:51;;;;;;;;;;;;;;;14.70;55.68;102427.66;1021359;29;1549;-59
2022/01/26 21:25:42;;;;;;;;;;;;;;;14.70;55.52;102427.66;1021487;29;1215;-59
2022/01/26 21:26:34;;;;;;;;;;;;;;;14.69;55.34;102420.56;1020047;29;1509;-59
2022/01/26 21:27:24;;;;;;;;;;;;;;;14.68;55.79;102423.38;1021785;29;1560;-60
2022/01/26 21:28:14;;;;;;;;;;;;;;;14.67;55.50;102422.50;1020135;29;1466;-59
2022/01/26 21:29:05;;;;;;;;;;;;;;;14.66;55.60;102412.72;1019993;29;1271;-58
2022/01/26 21:29:55;;;;;;;;;;;;;;;14.67;55.05;102414.44;1020769;29;1632;-58
2022/01/26 21:30:46;;;;;;;;;;;;;;;14.67;55.48;102416.25;1021303;29;1595;-59
2022/01/26 21:31:36;;;;;;;;;;;;;;;14.68;55.27;102412.63;1021788;29;1661;-59
2022/01/26 21:32:28;;;;;;;;;;;;;;;14.66;55.65;102412.72;1018735;29;1464;-58
2022/01/26 21:33:20;;;;;;;;;;;;;;;14.66;55.14;102415.41;1022130;29;1510;-58
2022/01/26 21:34:10;;;;;;;;;;;;;;;14.64;55.58;102414.63;1019599;29;1033;-58
2022/01/26 21:35:01;;;;;;;;;;;;;;;14.64;54.78;102416.44;1019726;29;1544;-58
2022/01/26 21:35:51;;;;;;;;;;;;;;;14.64;55.24;102411.06;1020611;29;1455;-59
2022/01/26 21:36:41;;;;;;;;;;;;;;;14.63;55.15;102414.69;1014735;29;1986;-60
2022/01/26 21:37:32;;;;;;;;;;;;;;;14.64;54.96;102417.31;1016512;29;1561;-60
2022/01/26 21:38:22;;;;;;;;;;;;;;;14.62;55.22;102408.47;1020199;29;1674;-60
2022/01/26 21:39:13;;;;;;;;;;;;;;;14.61;55.58;102408.56;1020302;29;1455;-58
2022/01/26 21:40:03;;;;;;;;;;;;;;;14.60;55.25;102410.38;1020753;29;1344;-60
2022/01/26 21:40:54;;;;;;;;;;;;;;;14.58;55.64;102407.78;1020716;29;1364;-60
2022/01/26 21:41:45;;;;;;;;;;;;;;;14.60;55.80;102410.38;1021864;29;1477;-59
2022/01/26 21:42:35;;;;;;;;;;;;;;;14.59;55.27;102409.50;1020874;29;1507;-59
2022/01/26 21:43:26;;;;;;;;;;;;;;;14.59;54.91;102406.81;1020010;29;1363;-59
2022/01/26 21:44:16;;;;;;;;;;;;;;;14.62;55.41;102415.66;1020357;29;1377;-58
2022/01/26 21:45:07;;;;;;;;;;;;;;;14.65;55.68;102405.63;1021527;29;1357;-59
2022/01/26 21:45:57;;;;;;;;;;;;;;;14.68;55.27;102408.13;1020422;29;1364;-59
2022/01/26 21:46:48;;;;;;;;;;;;;;;14.69;55.21;102409.84;1021756;29;1584;-59
2022/01/26 21:47:38;;;;;;;;;;;;;;;14.68;55.43;102408.13;1020397;29;1494;-59
2022/01/26 21:48:28;;;;;;;;;;;;;;;14.66;54.83;102402.00;1021932;28;1828;-58
2022/01/26 21:49:21;;;;;;;;;;;;;;;14.66;54.95;102404.66;1020878;29;1485;-59
2022/01/26 21:50:11;;;;;;;;;;;;;;;14.66;55.21;102396.63;1021295;29;1380;-59
2022/01/26 21:51:02;;;;;;;;;;;;;;;14.66;55.22;102398.44;1020725;29;1410;-59
2022/01/26 21:51:52;;;;;;;;;;;;;;;14.65;55.90;102391.34;1021179;29;1376;-58
2022/01/26 21:52:43;;;;;;;;;;;;;;;14.62;55.33;102392.38;1022069;29;687;-60
2022/01/26 21:53:33;;;;;;;;;;;;;;;14.61;55.90;102390.66;1021994;29;826;-58
2022/01/26 21:54:25;;;;;;;;;;;;;;;14.61;55.09;102396.00;1021927;29;929;-58
2022/01/26 21:55:15;;;;;;;;;;;;;;;14.61;55.45;102395.16;1022103;29;630;-58
2022/01/26 21:56:06;;;;;;;;;;;;;;;14.59;55.84;102392.53;1021925;29;701;-59
2022/01/26 21:56:56;;;;;;;;;;;;;;;14.59;55.31;102395.22;1021870;29;1906;-60
2022/01/26 21:57:47;;;;;;;;;;;;;;;14.59;55.35;102384.50;1018313;29;841;-58
2022/01/26 21:58:37;;;;;;;;;;;;;;;14.58;55.17;102388.13;1014676;29;1715;-58
2022/01/26 21:59:28;;;;;;;;;;;;;;;14.57;55.42;102395.31;1022470;29;808;-58
2022/01/26 22:00:20;;;;;;;;;;;;;;;14.57;55.21;102391.75;1021753;29;1603;-59
2022/01/26 22:01:10;;;;;;;;;;;;;;;14.56;55.53;102404.31;1021237;29;1388;-59
2022/01/26 22:02:00;;;;;;;;;;;;;;;14.55;55.80;102399.03;1020980;29;1373;-58
2022/01/26 22:02:53;;;;;;;;;;;;;;;14.56;55.45;102404.31;1019937;29;1590;-59
2022/01/26 22:03:44;;;;;;;;;;;;;;;14.55;55.39;102396.34;1020451;29;1459;-59
2022/01/26 22:04:34;;;;;;;;;;;;;;;14.55;55.61;102401.72;1020455;29;1484;-59
2022/01/26 22:05:26;;;;;;;;;;;;;;;14.54;55.11;102400.84;1021830;29;1568;-58
2022/01/26 22:06:16;;;;;;;;;;;;;;;14.56;55.97;102398.06;1020425;29;1484;-58
2022/01/26 22:07:07;;;;;;;;;;;;;;;14.58;55.51;102390.81;1021687;29;1576;-60
2022/01/26 22:07:57;;;;;;;;;;;;;;;14.58;55.32;102396.19;1020999;29;1662;-59
2022/01/26 22:08:48;;;;;;;;;;;;;;;14.59;55.60;102389.88;1022511;29;918;-60
2022/01/26 22:09:38;;;;;;;;;;;;;;;14.59;55.20;102392.53;1022449;29;673;-57
2022/01/26 22:10:28;;;;;;;;;;;;;;;14.58;55.27;102390.81;1022344;29;1864;-59
2022/01/26 22:11:20;;;;;;;;;;;;;;;14.57;55.15;102386.41;1019955;29;1288;-57
2022/01/26 22:12:10;;;;;;;;;;;;;;;14.57;54.96;102397.13;1021724;29;1616;-57
2022/01/26 22:13:01;;;;;;;;;;;;;;;14.55;55.08;102396.34;1018539;29;1469;-58
2022/01/26 22:13:51;;;;;;;;;;;;;;;14.55;55.58;102399.03;1020037;29;1561;-58
2022/01/26 22:14:42;;;;;;;;;;;;;;;14.53;55.07;102396.44;1021381;29;1570;-58
2022/01/26 22:15:32;;;;;;;;;;;;;;;14.53;55.13;102401.78;1019644;29;1457;-57
2022/01/26 22:16:23;;;;;;;;;;;;;;;14.50;55.41;102393.09;1021256;29;1643;-58
2022/01/26 22:17:13;;;;;;;;;;;;;;;14.48;55.78;102398.53;1020207;29;1470;-58
2022/01/26 22:18:03;;;;;;;;;;;;;;;14.46;55.23;102395.06;1021626;29;1455;-58
2022/01/26 22:18:54;;;;;;;;;;;;;;;14.44;55.09;102399.66;1021908;29;1489;-57
2022/01/26 22:19:44;;;;;;;;;;;;;;;14.43;55.91;102392.56;1020228;29;1480;-57
2022/01/26 22:20:35;;;;;;;;;;;;;;;14.42;55.78;102400.69;1020322;29;1540;-59
2022/01/26 22:21:30;;;;;;;;;;;;;;;14.42;55.04;102406.91;1021408;29;1696;-59
2022/01/26 22:22:21;;;;;;;;;;;;;;;14.43;55.32;102402.41;1020977;29;1507;-58
2022/01/26 22:23:12;;;;;;;;;;;;;;;14.42;55.55;102406.03;1019303;29;1664;-59
2022/01/26 22:24:03;;;;;;;;;;;;;;;14.42;55.05;102403.38;1018869;29;1465;-59
2022/01/26 22:24:54;;;;;;;;;;;;;;;14.42;55.39;102408.72;1020060;29;1371;-58
2022/01/26 22:25:44;;;;;;;;;;;;;;;14.41;55.04;102393.59;1021449;29;1550;-57
2022/01/26 22:26:35;;;;;;;;;;;;;;;14.39;55.92;102396.31;1021005;29;1735;-59
2022/01/26 22:27:30;;;;;;;;;;;;;;;14.38;55.73;102396.41;1021539;29;1466;-59
2022/01/26 22:28:25;;;;;;;;;;;;;;;14.36;55.42;102395.63;1019351;29;1807;-58
2022/01/26 22:29:22;;;;;;;;;;;;;;;14.35;55.52;102394.75;1018941;29;650;-58
2022/01/26 22:30:13;;;;;;;;;;;;;;;14.37;55.64;102390.16;1018512;29;784;-58
2022/01/26 22:31:03;;;;;;;;;;;;;;;14.37;55.17;102390.16;1020684;29;1477;-58
2022/01/26 22:31:54;;;;;;;;;;;;;;;14.37;55.46;102394.66;1020048;29;1417;-58
2022/01/26 22:32:44;;;;;;;;;;;;;;;14.37;55.61;102391.97;1021276;29;1492;-58
2022/01/26 22:33:35;;;;;;;;;;;;;;;14.35;55.69;102389.38;1021836;29;1729;-58
2022/01/26 22:34:26;;;;;;;;;;;;;;;14.33;55.77;102382.41;1021403;29;1481;-59
2022/01/26 22:35:16;;;;;;;;;;;;;;;14.31;56.12;102373.59;1019934;29;1475;-59
2022/01/26 22:36:07;;;;;;;;;;;;;;;14.30;55.42;102369.16;1021716;29;1447;-59
2022/01/26 22:36:57;;;;;;;;;;;;;;;14.31;55.44;102373.59;1021696;29;1898;-59
2022/01/26 22:37:50;;;;;;;;;;;;;;;14.30;55.25;102374.53;1020731;29;1516;-60